sensor_id;sensor_type;location;lat;lon;timestamp;P1;durP1;ratioP1;P2;durP2;ratioP2
33987;SDS011;37428;53.580;-1.666;2022-09-12T00:00:14;6.43;;;2.47;;
33987;SDS011;37428;53.580;-1.666;2022-09-12T00:03:16;3.67;;;2.60;;
33987;SDS011;37428;53.580;-1.666;2022-09-12T00:06:23;5.03;;;2.70;;
33987;SDS011;37428;53.580;-1.666;2022-09-12T00:09:28;5.28;;;2.50;;
33987;SDS011;37428;53.580;-1.666;2022-09-12T00:12:30;4.03;;;2.50;;
33987;SDS011;37428;53.580;-1.666;2022-09-12T00:15:36;2.42;;;2.22;;
33987;SDS011;37428;53.580;-1.666;2022-09-12T00:18:39;3.03;;;2.40;;
33987;SDS011;37428;53.580;-1.666;2022-09-12T00:21:41;4.85;;;2.83;;
33987;SDS011;37428;53.580;-1.666;2022-09-12T00:24:46;4.43;;;2.60;;
33987;SDS011;37428;53.580;-1.666;2022-09-12T00:27:48;5.50;;;2.80;;
33987;SDS011;37428;53.580;-1.666;2022-09-12T00:30:50;3.38;;;2.78;;
33987;SDS011;37428;53.580;-1.666;2022-09-12T00:33:54;4.40;;;2.55;;
33987;SDS011;37428;53.580;-1.666;2022-09-12T00:36:57;7.72;;;2.42;;
33987;SDS011;37428;53.580;-1.666;2022-09-12T00:40:01;3.92;;;2.53;;
33987;SDS011;37428;53.580;-1.666;2022-09-12T00:43:03;3.35;;;2.42;;
33987;SDS011;37428;53.580;-1.666;2022-09-12T00:46:09;5.43;;;2.35;;
33987;SDS011;37428;53.580;-1.666;2022-09-12T00:49:17;4.82;;;2.10;;
33987;SDS011;37428;53.580;-1.666;2022-09-12T00:52:25;5.88;;;2.15;;
33987;SDS011;37428;53.580;-1.666;2022-09-12T00:55:34;4.57;;;2.33;;
33987;SDS011;37428;53.580;-1.666;2022-09-12T00:58:40;5.45;;;1.80;;
33987;SDS011;37428;53.580;-1.666;2022-09-12T01:01:45;3.22;;;2.13;;
33987;SDS011;37428;53.580;-1.666;2022-09-12T01:04:50;4.57;;;2.50;;
33987;SDS011;37428;53.580;-1.666;2022-09-12T01:07:54;4.47;;;1.83;;
33987;SDS011;37428;53.580;-1.666;2022-09-12T01:10:59;3.30;;;2.30;;
33987;SDS011;37428;53.580;-1.666;2022-09-12T01:14:02;5.70;;;2.58;;
33987;SDS011;37428;53.580;-1.666;2022-09-12T01:17:04;3.28;;;2.20;;
33987;SDS011;37428;53.580;-1.666;2022-09-12T01:27:48;1.60;;;1.50;;
33987;SDS011;37428;53.580;-1.666;2022-09-12T01:31:01;3.28;;;1.52;;
33987;SDS011;37428;53.580;-1.666;2022-09-12T01:34:09;1.17;;;1.05;;
33987;SDS011;37428;53.580;-1.666;2022-09-12T01:37:19;1.50;;;1.40;;
33987;SDS011;37428;53.580;-1.666;2022-09-12T01:40:31;2.08;;;1.13;;
33987;SDS011;37428;53.580;-1.666;2022-09-12T01:43:44;1.83;;;0.85;;
33987;SDS011;37428;53.580;-1.666;2022-09-12T01:46:53;1.52;;;1.00;;
33987;SDS011;37428;53.580;-1.666;2022-09-12T01:50:00;0.98;;;0.82;;
33987;SDS011;37428;53.580;-1.666;2022-09-12T01:53:07;1.55;;;1.30;;
33987;SDS011;37428;53.580;-1.666;2022-09-12T01:56:16;1.45;;;0.82;;
33987;SDS011;37428;53.580;-1.666;2022-09-12T01:59:23;0.80;;;0.73;;
33987;SDS011;37428;53.580;-1.666;2022-09-12T02:02:31;2.00;;;1.20;;
33987;SDS011;37428;53.580;-1.666;2022-09-12T02:05:38;1.80;;;1.17;;
33987;SDS011;37428;53.580;-1.666;2022-09-12T02:08:43;3.83;;;1.83;;
33987;SDS011;37428;53.580;-1.666;2022-09-12T02:11:51;1.85;;;1.42;;
33987;SDS011;37428;53.580;-1.666;2022-09-12T02:15:00;3.03;;;1.85;;
33987;SDS011;37428;53.580;-1.666;2022-09-12T02:18:10;2.35;;;1.33;;
33987;SDS011;37428;53.580;-1.666;2022-09-12T02:21:17;2.47;;;1.48;;
33987;SDS011;37428;53.580;-1.666;2022-09-12T02:24:23;2.60;;;1.85;;
33987;SDS011;37428;53.580;-1.666;2022-09-12T02:27:31;3.30;;;1.80;;
33987;SDS011;37428;53.580;-1.666;2022-09-12T02:30:38;3.33;;;1.75;;
33987;SDS011;37428;53.580;-1.666;2022-09-12T02:33:47;1.58;;;1.45;;
33987;SDS011;37428;53.580;-1.666;2022-09-12T02:36:58;3.83;;;2.03;;
33987;SDS011;37428;53.580;-1.666;2022-09-12T02:40:06;3.40;;;2.08;;
33987;SDS011;37428;53.580;-1.666;2022-09-12T02:43:10;3.58;;;1.85;;
33987;SDS011;37428;53.580;-1.666;2022-09-12T02:46:14;2.58;;;1.80;;
33987;SDS011;37428;53.580;-1.666;2022-09-12T02:49:23;3.85;;;2.60;;
33987;SDS011;37428;53.580;-1.666;2022-09-12T02:52:26;3.95;;;2.30;;
33987;SDS011;37428;53.580;-1.666;2022-09-12T02:55:32;2.55;;;2.28;;
33987;SDS011;37428;53.580;-1.666;2022-09-12T02:58:36;4.25;;;1.65;;
33987;SDS011;37428;53.580;-1.666;2022-09-12T03:01:47;6.05;;;2.40;;
33987;SDS011;37428;53.580;-1.666;2022-09-12T03:05:09;4.68;;;2.13;;
33987;SDS011;37428;53.580;-1.666;2022-09-12T03:12:06;3.95;;;3.63;;
33987;SDS011;37428;53.580;-1.666;2022-09-12T03:15:20;3.97;;;2.70;;
33987;SDS011;37428;53.580;-1.666;2022-09-12T03:18:31;4.85;;;2.30;;
33987;SDS011;37428;53.580;-1.666;2022-09-12T03:21:51;2.90;;;2.45;;
33987;SDS011;37428;53.580;-1.666;2022-09-12T03:25:04;5.90;;;2.53;;
33987;SDS011;37428;53.580;-1.666;2022-09-12T03:28:14;3.40;;;2.15;;
33987;SDS011;37428;53.580;-1.666;2022-09-12T03:31:18;5.20;;;2.95;;
33987;SDS011;37428;53.580;-1.666;2022-09-12T03:34:21;5.50;;;2.40;;
33987;SDS011;37428;53.580;-1.666;2022-09-12T03:37:25;3.55;;;2.42;;
33987;SDS011;37428;53.580;-1.666;2022-09-12T03:40:27;5.28;;;2.30;;
33987;SDS011;37428;53.580;-1.666;2022-09-12T03:43:30;4.70;;;2.40;;
33987;SDS011;37428;53.580;-1.666;2022-09-12T03:46:32;4.28;;;3.25;;
33987;SDS011;37428;53.580;-1.666;2022-09-12T03:49:34;5.20;;;2.28;;
33987;SDS011;37428;53.580;-1.666;2022-09-12T03:52:39;2.78;;;2.28;;
33987;SDS011;37428;53.580;-1.666;2022-09-12T03:55:41;3.25;;;2.50;;
33987;SDS011;37428;53.580;-1.666;2022-09-12T03:58:43;4.10;;;2.55;;
33987;SDS011;37428;53.580;-1.666;2022-09-12T04:04:47;2.70;;;2.50;;
33987;SDS011;37428;53.580;-1.666;2022-09-12T04:07:51;6.00;;;2.50;;
33987;SDS011;37428;53.580;-1.666;2022-09-12T04:11:03;3.15;;;2.80;;
33987;SDS011;37428;53.580;-1.666;2022-09-12T04:14:06;4.07;;;2.50;;
33987;SDS011;37428;53.580;-1.666;2022-09-12T04:17:08;7.95;;;2.25;;
33987;SDS011;37428;53.580;-1.666;2022-09-12T04:20:12;2.63;;;2.40;;
33987;SDS011;37428;53.580;-1.666;2022-09-12T04:23:16;3.53;;;2.88;;
33987;SDS011;37428;53.580;-1.666;2022-09-12T04:26:18;3.10;;;2.58;;
33987;SDS011;37428;53.580;-1.666;2022-09-12T04:29:21;5.53;;;2.97;;
33987;SDS011;37428;53.580;-1.666;2022-09-12T04:32:23;3.65;;;2.55;;
33987;SDS011;37428;53.580;-1.666;2022-09-12T04:35:25;4.65;;;2.95;;
33987;SDS011;37428;53.580;-1.666;2022-09-12T04:38:31;3.05;;;2.70;;
33987;SDS011;37428;53.580;-1.666;2022-09-12T04:41:38;5.07;;;2.67;;
33987;SDS011;37428;53.580;-1.666;2022-09-12T04:44:41;5.00;;;2.53;;
33987;SDS011;37428;53.580;-1.666;2022-09-12T04:47:43;4.47;;;3.25;;
33987;SDS011;37428;53.580;-1.666;2022-09-12T04:50:46;3.92;;;3.10;;
33987;SDS011;37428;53.580;-1.666;2022-09-12T04:53:51;3.50;;;3.20;;
33987;SDS011;37428;53.580;-1.666;2022-09-12T04:56:55;9.02;;;2.80;;
33987;SDS011;37428;53.580;-1.666;2022-09-12T04:59:58;4.10;;;3.17;;
33987;SDS011;37428;53.580;-1.666;2022-09-12T05:03:00;3.92;;;2.75;;
33987;SDS011;37428;53.580;-1.666;2022-09-12T05:06:03;3.63;;;2.50;;
33987;SDS011;37428;53.580;-1.666;2022-09-12T05:09:11;3.33;;;2.70;;
33987;SDS011;37428;53.580;-1.666;2022-09-12T05:12:15;4.00;;;2.80;;
33987;SDS011;37428;53.580;-1.666;2022-09-12T05:15:17;3.13;;;2.83;;
33987;SDS011;37428;53.580;-1.666;2022-09-12T05:18:21;6.30;;;3.35;;
33987;SDS011;37428;53.580;-1.666;2022-09-12T05:21:23;3.35;;;3.05;;
33987;SDS011;37428;53.580;-1.666;2022-09-12T05:24:33;6.95;;;3.58;;
33987;SDS011;37428;53.580;-1.666;2022-09-12T05:27:36;4.65;;;3.65;;
33987;SDS011;37428;53.580;-1.666;2022-09-12T05:30:39;3.90;;;2.95;;
33987;SDS011;37428;53.580;-1.666;2022-09-12T05:33:41;4.25;;;2.88;;
33987;SDS011;37428;53.580;-1.666;2022-09-12T05:36:45;5.25;;;3.03;;
33987;SDS011;37428;53.580;-1.666;2022-09-12T05:39:50;3.00;;;2.70;;
33987;SDS011;37428;53.580;-1.666;2022-09-12T05:42:52;4.10;;;2.80;;
33987;SDS011;37428;53.580;-1.666;2022-09-12T05:45:58;2.60;;;2.40;;
33987;SDS011;37428;53.580;-1.666;2022-09-12T05:49:02;3.75;;;2.70;;
33987;SDS011;37428;53.580;-1.666;2022-09-12T05:52:07;7.07;;;2.80;;
33987;SDS011;37428;53.580;-1.666;2022-09-12T05:55:11;2.55;;;2.00;;
33987;SDS011;37428;53.580;-1.666;2022-09-12T05:58:14;3.88;;;2.10;;
33987;SDS011;37428;53.580;-1.666;2022-09-12T06:01:22;3.30;;;2.53;;
33987;SDS011;37428;53.580;-1.666;2022-09-12T06:04:25;6.38;;;2.38;;
33987;SDS011;37428;53.580;-1.666;2022-09-12T06:07:30;2.92;;;2.45;;
33987;SDS011;37428;53.580;-1.666;2022-09-12T06:10:34;3.17;;;1.90;;
33987;SDS011;37428;53.580;-1.666;2022-09-12T06:13:36;3.35;;;1.80;;
33987;SDS011;37428;53.580;-1.666;2022-09-12T06:16:40;1.85;;;1.75;;
33987;SDS011;37428;53.580;-1.666;2022-09-12T06:19:42;2.08;;;1.88;;
33987;SDS011;37428;53.580;-1.666;2022-09-12T06:25:48;1.90;;;1.70;;
33987;SDS011;37428;53.580;-1.666;2022-09-12T06:28:51;1.65;;;1.55;;
33987;SDS011;37428;53.580;-1.666;2022-09-12T06:31:54;2.78;;;1.70;;
33987;SDS011;37428;53.580;-1.666;2022-09-12T06:34:56;1.70;;;1.60;;
33987;SDS011;37428;53.580;-1.666;2022-09-12T06:37:59;2.42;;;1.77;;
33987;SDS011;37428;53.580;-1.666;2022-09-12T06:41:03;1.67;;;1.58;;
33987;SDS011;37428;53.580;-1.666;2022-09-12T06:44:08;1.95;;;1.83;;
33987;SDS011;37428;53.580;-1.666;2022-09-12T06:47:13;1.45;;;1.35;;
33987;SDS011;37428;53.580;-1.666;2022-09-12T06:50:15;2.17;;;1.98;;
33987;SDS011;37428;53.580;-1.666;2022-09-12T06:53:17;2.35;;;2.08;;
33987;SDS011;37428;53.580;-1.666;2022-09-12T06:56:21;3.00;;;2.80;;
33987;SDS011;37428;53.580;-1.666;2022-09-12T06:59:24;2.97;;;2.78;;
33987;SDS011;37428;53.580;-1.666;2022-09-12T07:02:26;4.20;;;2.85;;
33987;SDS011;37428;53.580;-1.666;2022-09-12T07:05:29;3.60;;;3.30;;
33987;SDS011;37428;53.580;-1.666;2022-09-12T07:08:31;7.78;;;3.15;;
33987;SDS011;37428;53.580;-1.666;2022-09-12T07:11:35;4.05;;;3.65;;
33987;SDS011;37428;53.580;-1.666;2022-09-12T07:14:38;4.43;;;3.75;;
33987;SDS011;37428;53.580;-1.666;2022-09-12T07:17:40;3.92;;;3.33;;
33987;SDS011;37428;53.580;-1.666;2022-09-12T07:20:43;3.38;;;2.67;;
33987;SDS011;37428;53.580;-1.666;2022-09-12T07:23:51;2.85;;;2.65;;
33987;SDS011;37428;53.580;-1.666;2022-09-12T07:26:55;3.05;;;2.85;;
33987;SDS011;37428;53.580;-1.666;2022-09-12T07:30:00;4.47;;;2.83;;
33987;SDS011;37428;53.580;-1.666;2022-09-12T07:33:02;3.60;;;2.65;;
33987;SDS011;37428;53.580;-1.666;2022-09-12T07:36:07;2.30;;;1.98;;
33987;SDS011;37428;53.580;-1.666;2022-09-12T07:39:11;2.83;;;2.30;;
33987;SDS011;37428;53.580;-1.666;2022-09-12T07:42:15;2.72;;;1.80;;
33987;SDS011;37428;53.580;-1.666;2022-09-12T07:45:17;2.22;;;2.03;;
33987;SDS011;37428;53.580;-1.666;2022-09-12T07:48:19;3.88;;;1.80;;
33987;SDS011;37428;53.580;-1.666;2022-09-12T07:51:24;5.07;;;2.15;;
33987;SDS011;37428;53.580;-1.666;2022-09-12T07:54:27;3.85;;;2.50;;
33987;SDS011;37428;53.580;-1.666;2022-09-12T07:57:32;3.30;;;2.33;;
33987;SDS011;37428;53.580;-1.666;2022-09-12T08:00:34;6.65;;;2.13;;
33987;SDS011;37428;53.580;-1.666;2022-09-12T08:03:43;1.90;;;1.80;;
33987;SDS011;37428;53.580;-1.666;2022-09-12T08:06:46;3.40;;;1.92;;
33987;SDS011;37428;53.580;-1.666;2022-09-12T08:09:50;3.38;;;1.98;;
33987;SDS011;37428;53.580;-1.666;2022-09-12T08:13:08;2.10;;;1.90;;
33987;SDS011;37428;53.580;-1.666;2022-09-12T08:16:10;2.20;;;2.00;;
33987;SDS011;37428;53.580;-1.666;2022-09-12T08:19:14;2.13;;;2.03;;
33987;SDS011;37428;53.580;-1.666;2022-09-12T08:22:16;1.70;;;1.23;;
33987;SDS011;37428;53.580;-1.666;2022-09-12T08:25:21;1.08;;;1.05;;
33987;SDS011;37428;53.580;-1.666;2022-09-12T08:28:24;1.42;;;1.33;;
33987;SDS011;37428;53.580;-1.666;2022-09-12T08:31:27;1.30;;;1.20;;
33987;SDS011;37428;53.580;-1.666;2022-09-12T08:34:31;1.60;;;1.50;;
33987;SDS011;37428;53.580;-1.666;2022-09-12T08:37:33;1.50;;;1.38;;
33987;SDS011;37428;53.580;-1.666;2022-09-12T08:40:41;1.40;;;1.30;;
33987;SDS011;37428;53.580;-1.666;2022-09-12T08:47:05;2.30;;;1.58;;
33987;SDS011;37428;53.580;-1.666;2022-09-12T08:50:16;1.80;;;1.70;;
33987;SDS011;37428;53.580;-1.666;2022-09-12T08:53:20;2.42;;;2.15;;
33987;SDS011;37428;53.580;-1.666;2022-09-12T08:56:25;4.47;;;2.80;;
33987;SDS011;37428;53.580;-1.666;2022-09-12T08:59:39;2.78;;;2.33;;
33987;SDS011;37428;53.580;-1.666;2022-09-12T09:06:31;1.65;;;1.55;;
33987;SDS011;37428;53.580;-1.666;2022-09-12T09:09:48;2.03;;;1.92;;
33987;SDS011;37428;53.580;-1.666;2022-09-12T09:13:01;3.42;;;2.58;;
33987;SDS011;37428;53.580;-1.666;2022-09-12T09:16:11;2.47;;;2.28;;
33987;SDS011;37428;53.580;-1.666;2022-09-12T09:19:19;4.03;;;1.58;;
33987;SDS011;37428;53.580;-1.666;2022-09-12T09:22:31;2.22;;;1.55;;
33987;SDS011;37428;53.580;-1.666;2022-09-12T09:25:42;1.75;;;1.65;;
33987;SDS011;37428;53.580;-1.666;2022-09-12T09:28:49;1.92;;;1.60;;
33987;SDS011;37428;53.580;-1.666;2022-09-12T09:31:57;2.15;;;1.48;;
33987;SDS011;37428;53.580;-1.666;2022-09-12T09:35:14;6.00;;;1.85;;
33987;SDS011;37428;53.580;-1.666;2022-09-12T09:38:21;2.72;;;1.85;;
33987;SDS011;37428;53.580;-1.666;2022-09-12T09:41:35;2.25;;;1.95;;
33987;SDS011;37428;53.580;-1.666;2022-09-12T09:44:46;3.05;;;1.88;;
33987;SDS011;37428;53.580;-1.666;2022-09-12T09:47:51;2.20;;;2.00;;
33987;SDS011;37428;53.580;-1.666;2022-09-12T09:50:58;2.75;;;2.10;;
33987;SDS011;37428;53.580;-1.666;2022-09-12T09:54:01;3.47;;;1.92;;
33987;SDS011;37428;53.580;-1.666;2022-09-12T10:00:40;2.55;;;1.52;;
33987;SDS011;37428;53.580;-1.666;2022-09-12T10:03:47;1.98;;;1.63;;
33987;SDS011;37428;53.580;-1.666;2022-09-12T10:06:51;2.35;;;1.42;;
33987;SDS011;37428;53.580;-1.666;2022-09-12T10:10:03;3.25;;;1.67;;
33987;SDS011;37428;53.580;-1.666;2022-09-12T10:13:08;1.95;;;1.30;;
33987;SDS011;37428;53.580;-1.666;2022-09-12T10:16:24;1.23;;;1.13;;
33987;SDS011;37428;53.580;-1.666;2022-09-12T10:19:33;1.50;;;1.15;;
33987;SDS011;37428;53.580;-1.666;2022-09-12T10:22:36;1.40;;;1.30;;
33987;SDS011;37428;53.580;-1.666;2022-09-12T10:28:42;2.28;;;2.08;;
33987;SDS011;37428;53.580;-1.666;2022-09-12T10:31:48;1.05;;;1.02;;
33987;SDS011;37428;53.580;-1.666;2022-09-12T10:34:56;2.28;;;1.00;;
33987;SDS011;37428;53.580;-1.666;2022-09-12T10:38:02;1.38;;;1.27;;
33987;SDS011;37428;53.580;-1.666;2022-09-12T10:41:07;2.42;;;2.17;;
33987;SDS011;37428;53.580;-1.666;2022-09-12T10:44:13;3.83;;;1.95;;
33987;SDS011;37428;53.580;-1.666;2022-09-12T10:47:20;2.22;;;2.03;;
33987;SDS011;37428;53.580;-1.666;2022-09-12T10:50:29;3.38;;;2.00;;
33987;SDS011;37428;53.580;-1.666;2022-09-12T10:53:38;2.03;;;1.80;;
33987;SDS011;37428;53.580;-1.666;2022-09-12T10:56:43;2.13;;;1.80;;
33987;SDS011;37428;53.580;-1.666;2022-09-12T11:00:01;1.50;;;1.40;;
33987;SDS011;37428;53.580;-1.666;2022-09-12T11:03:14;1.88;;;1.65;;
33987;SDS011;37428;53.580;-1.666;2022-09-12T11:06:26;2.40;;;1.63;;
33987;SDS011;37428;53.580;-1.666;2022-09-12T11:09:37;2.30;;;1.70;;
33987;SDS011;37428;53.580;-1.666;2022-09-12T11:12:50;2.83;;;1.50;;
33987;SDS011;37428;53.580;-1.666;2022-09-12T11:16:03;1.75;;;1.50;;
33987;SDS011;37428;53.580;-1.666;2022-09-12T11:19:19;2.72;;;2.10;;
33987;SDS011;37428;53.580;-1.666;2022-09-12T11:22:41;2.45;;;1.50;;
33987;SDS011;37428;53.580;-1.666;2022-09-12T11:25:59;2.33;;;1.40;;
33987;SDS011;37428;53.580;-1.666;2022-09-12T11:29:15;1.98;;;1.80;;
33987;SDS011;37428;53.580;-1.666;2022-09-12T11:32:32;3.60;;;2.55;;
33987;SDS011;37428;53.580;-1.666;2022-09-12T11:35:59;3.00;;;2.80;;
33987;SDS011;37428;53.580;-1.666;2022-09-12T11:39:10;2.63;;;2.53;;
33987;SDS011;37428;53.580;-1.666;2022-09-12T11:42:15;4.05;;;3.60;;
33987;SDS011;37428;53.580;-1.666;2022-09-12T11:45:22;3.63;;;3.33;;
33987;SDS011;37428;53.580;-1.666;2022-09-12T11:48:32;2.92;;;2.65;;
33987;SDS011;37428;53.580;-1.666;2022-09-12T11:51:39;5.50;;;3.45;;
33987;SDS011;37428;53.580;-1.666;2022-09-12T11:54:48;4.10;;;3.65;;
33987;SDS011;37428;53.580;-1.666;2022-09-12T11:57:59;3.60;;;3.40;;
33987;SDS011;37428;53.580;-1.666;2022-09-12T12:01:05;3.35;;;3.15;;
33987;SDS011;37428;53.580;-1.666;2022-09-12T12:04:12;2.83;;;2.63;;
33987;SDS011;37428;53.580;-1.666;2022-09-12T12:07:20;3.47;;;3.20;;
33987;SDS011;37428;53.580;-1.666;2022-09-12T12:10:25;3.10;;;2.90;;
33987;SDS011;37428;53.580;-1.666;2022-09-12T12:13:33;2.85;;;2.60;;
33987;SDS011;37428;53.580;-1.666;2022-09-12T12:16:39;4.78;;;3.40;;
33987;SDS011;37428;53.580;-1.666;2022-09-12T12:19:42;6.78;;;2.50;;
33987;SDS011;37428;53.580;-1.666;2022-09-12T12:22:49;2.60;;;2.40;;
33987;SDS011;37428;53.580;-1.666;2022-09-12T12:25:55;2.65;;;2.45;;
33987;SDS011;37428;53.580;-1.666;2022-09-12T12:28:58;5.22;;;3.85;;
33987;SDS011;37428;53.580;-1.666;2022-09-12T12:35:37;6.25;;;3.40;;
33987;SDS011;37428;53.580;-1.666;2022-09-12T12:38:41;4.07;;;3.50;;
33987;SDS011;37428;53.580;-1.666;2022-09-12T12:41:45;3.75;;;3.45;;
33987;SDS011;37428;53.580;-1.666;2022-09-12T12:44:47;5.88;;;4.90;;
33987;SDS011;37428;53.580;-1.666;2022-09-12T12:47:50;5.25;;;4.78;;
33987;SDS011;37428;53.580;-1.666;2022-09-12T12:54:31;5.68;;;4.55;;
33987;SDS011;37428;53.580;-1.666;2022-09-12T12:57:56;5.43;;;4.65;;
33987;SDS011;37428;53.580;-1.666;2022-09-12T13:01:03;4.00;;;3.60;;
33987;SDS011;37428;53.580;-1.666;2022-09-12T13:04:11;3.90;;;3.70;;
33987;SDS011;37428;53.580;-1.666;2022-09-12T13:07:27;3.53;;;3.22;;
33987;SDS011;37428;53.580;-1.666;2022-09-12T13:10:33;3.28;;;2.97;;
33987;SDS011;37428;53.580;-1.666;2022-09-12T13:13:37;3.75;;;3.00;;
33987;SDS011;37428;53.580;-1.666;2022-09-12T13:16:51;2.92;;;2.35;;
33987;SDS011;37428;53.580;-1.666;2022-09-12T13:20:01;2.55;;;2.40;;
33987;SDS011;37428;53.580;-1.666;2022-09-12T13:23:19;2.75;;;2.63;;
33987;SDS011;37428;53.580;-1.666;2022-09-12T13:26:23;4.80;;;3.95;;
33987;SDS011;37428;53.580;-1.666;2022-09-12T13:29:27;3.28;;;2.80;;
33987;SDS011;37428;53.580;-1.666;2022-09-12T13:32:29;3.58;;;3.38;;
33987;SDS011;37428;53.580;-1.666;2022-09-12T13:35:34;3.50;;;3.28;;
33987;SDS011;37428;53.580;-1.666;2022-09-12T13:38:57;4.22;;;3.90;;
33987;SDS011;37428;53.580;-1.666;2022-09-12T13:45:41;4.32;;;4.03;;
33987;SDS011;37428;53.580;-1.666;2022-09-12T13:48:45;4.05;;;3.75;;
33987;SDS011;37428;53.580;-1.666;2022-09-12T13:54:56;3.22;;;3.00;;
33987;SDS011;37428;53.580;-1.666;2022-09-12T13:58:00;3.25;;;3.00;;
33987;SDS011;37428;53.580;-1.666;2022-09-12T14:01:05;3.00;;;2.80;;
33987;SDS011;37428;53.580;-1.666;2022-09-12T14:04:13;2.60;;;2.33;;
33987;SDS011;37428;53.580;-1.666;2022-09-12T14:07:50;2.45;;;1.60;;
33987;SDS011;37428;53.580;-1.666;2022-09-12T14:10:55;1.50;;;1.40;;
33987;SDS011;37428;53.580;-1.666;2022-09-12T14:13:58;1.85;;;1.40;;
33987;SDS011;37428;53.580;-1.666;2022-09-12T14:17:15;1.88;;;1.38;;
33987;SDS011;37428;53.580;-1.666;2022-09-12T14:20:19;1.38;;;1.33;;
33987;SDS011;37428;53.580;-1.666;2022-09-12T14:23:24;1.25;;;1.25;;
33987;SDS011;37428;53.580;-1.666;2022-09-12T14:26:29;1.50;;;1.40;;
33987;SDS011;37428;53.580;-1.666;2022-09-12T14:29:35;4.57;;;1.73;;
33987;SDS011;37428;53.580;-1.666;2022-09-12T14:32:38;2.25;;;2.15;;
33987;SDS011;37428;53.580;-1.666;2022-09-12T14:35:41;3.50;;;3.30;;
33987;SDS011;37428;53.580;-1.666;2022-09-12T14:38:46;3.92;;;3.63;;
33987;SDS011;37428;53.580;-1.666;2022-09-12T14:41:58;4.25;;;4.00;;
33987;SDS011;37428;53.580;-1.666;2022-09-12T14:45:03;5.15;;;4.75;;
33987;SDS011;37428;53.580;-1.666;2022-09-12T14:48:17;3.85;;;3.55;;
33987;SDS011;37428;53.580;-1.666;2022-09-12T14:51:21;3.97;;;3.67;;
33987;SDS011;37428;53.580;-1.666;2022-09-12T14:54:33;3.88;;;3.20;;
33987;SDS011;37428;53.580;-1.666;2022-09-12T14:57:38;4.57;;;4.18;;
33987;SDS011;37428;53.580;-1.666;2022-09-12T15:00:51;4.30;;;4.00;;
33987;SDS011;37428;53.580;-1.666;2022-09-12T15:03:57;4.57;;;4.28;;
33987;SDS011;37428;53.580;-1.666;2022-09-12T15:06:59;5.30;;;4.88;;
33987;SDS011;37428;53.580;-1.666;2022-09-12T15:10:15;5.30;;;4.90;;
33987;SDS011;37428;53.580;-1.666;2022-09-12T15:13:22;5.28;;;4.78;;
33987;SDS011;37428;53.580;-1.666;2022-09-12T15:16:26;5.28;;;4.97;;
33987;SDS011;37428;53.580;-1.666;2022-09-12T15:19:29;6.75;;;5.88;;
33987;SDS011;37428;53.580;-1.666;2022-09-12T15:22:31;5.78;;;5.43;;
33987;SDS011;37428;53.580;-1.666;2022-09-12T15:25:35;5.70;;;5.30;;
33987;SDS011;37428;53.580;-1.666;2022-09-12T15:28:37;5.05;;;4.75;;
33987;SDS011;37428;53.580;-1.666;2022-09-12T15:31:39;4.93;;;4.63;;
33987;SDS011;37428;53.580;-1.666;2022-09-12T15:34:43;4.97;;;4.57;;
33987;SDS011;37428;53.580;-1.666;2022-09-12T15:37:45;4.07;;;3.78;;
33987;SDS011;37428;53.580;-1.666;2022-09-12T15:40:50;3.47;;;3.28;;
33987;SDS011;37428;53.580;-1.666;2022-09-12T15:43:53;2.90;;;2.70;;
33987;SDS011;37428;53.580;-1.666;2022-09-12T15:46:55;2.35;;;1.50;;
33987;SDS011;37428;53.580;-1.666;2022-09-12T15:49:59;1.08;;;1.05;;
33987;SDS011;37428;53.580;-1.666;2022-09-12T15:53:03;1.10;;;1.00;;
33987;SDS011;37428;53.580;-1.666;2022-09-12T15:56:05;6.47;;;1.00;;
33987;SDS011;37428;53.580;-1.666;2022-09-12T15:59:07;1.85;;;0.88;;
33987;SDS011;37428;53.580;-1.666;2022-09-12T16:02:10;0.90;;;0.90;;
33987;SDS011;37428;53.580;-1.666;2022-09-12T16:08:17;0.50;;;0.50;;
33987;SDS011;37428;53.580;-1.666;2022-09-12T16:11:20;2.70;;;0.60;;
33987;SDS011;37428;53.580;-1.666;2022-09-12T16:14:25;1.65;;;1.35;;
33987;SDS011;37428;53.580;-1.666;2022-09-12T16:17:27;2.40;;;2.20;;
33987;SDS011;37428;53.580;-1.666;2022-09-12T16:20:31;1.85;;;1.75;;
33987;SDS011;37428;53.580;-1.666;2022-09-12T16:23:33;1.50;;;1.23;;
33987;SDS011;37428;53.580;-1.666;2022-09-12T16:26:35;1.88;;;1.17;;
33987;SDS011;37428;53.580;-1.666;2022-09-12T16:29:37;3.33;;;1.75;;
33987;SDS011;37428;53.580;-1.666;2022-09-12T16:32:39;1.90;;;1.23;;
33987;SDS011;37428;53.580;-1.666;2022-09-12T16:35:43;2.22;;;1.00;;
33987;SDS011;37428;53.580;-1.666;2022-09-12T16:38:46;0.50;;;0.50;;
33987;SDS011;37428;53.580;-1.666;2022-09-12T16:41:49;0.45;;;0.45;;
33987;SDS011;37428;53.580;-1.666;2022-09-12T16:44:51;1.50;;;0.98;;
33987;SDS011;37428;53.580;-1.666;2022-09-12T16:47:53;2.13;;;1.30;;
33987;SDS011;37428;53.580;-1.666;2022-09-12T16:50:57;0.88;;;0.88;;
33987;SDS011;37428;53.580;-1.666;2022-09-12T16:54:00;1.30;;;1.05;;
33987;SDS011;37428;53.580;-1.666;2022-09-12T17:00:06;0.57;;;0.57;;
33987;SDS011;37428;53.580;-1.666;2022-09-12T17:03:11;0.70;;;0.60;;
33987;SDS011;37428;53.580;-1.666;2022-09-12T17:06:16;0.70;;;0.70;;
33987;SDS011;37428;53.580;-1.666;2022-09-12T17:09:19;2.58;;;0.70;;
33987;SDS011;37428;53.580;-1.666;2022-09-12T17:12:21;0.43;;;0.40;;
33987;SDS011;37428;53.580;-1.666;2022-09-12T17:15:24;0.73;;;0.20;;
33987;SDS011;37428;53.580;-1.666;2022-09-12T17:18:26;0.40;;;0.35;;
33987;SDS011;37428;53.580;-1.666;2022-09-12T17:21:30;0.57;;;0.57;;
33987;SDS011;37428;53.580;-1.666;2022-09-12T17:24:34;1.23;;;0.70;;
33987;SDS011;37428;53.580;-1.666;2022-09-12T17:27:36;1.38;;;0.38;;
33987;SDS011;37428;53.580;-1.666;2022-09-12T17:30:38;2.17;;;0.82;;
33987;SDS011;37428;53.580;-1.666;2022-09-12T17:33:40;1.85;;;0.40;;
33987;SDS011;37428;53.580;-1.666;2022-09-12T17:36:44;0.80;;;0.77;;
33987;SDS011;37428;53.580;-1.666;2022-09-12T17:39:54;0.90;;;0.70;;
33987;SDS011;37428;53.580;-1.666;2022-09-12T17:42:56;0.68;;;0.68;;
33987;SDS011;37428;53.580;-1.666;2022-09-12T17:45:59;0.57;;;0.55;;
33987;SDS011;37428;53.580;-1.666;2022-09-12T17:49:02;3.33;;;0.90;;
33987;SDS011;37428;53.580;-1.666;2022-09-12T17:52:06;0.80;;;0.80;;
33987;SDS011;37428;53.580;-1.666;2022-09-12T17:55:08;1.02;;;0.95;;
33987;SDS011;37428;53.580;-1.666;2022-09-12T17:58:11;0.30;;;0.30;;
33987;SDS011;37428;53.580;-1.666;2022-09-12T18:01:14;0.52;;;0.30;;
33987;SDS011;37428;53.580;-1.666;2022-09-12T18:04:34;1.20;;;0.50;;
33987;SDS011;37428;53.580;-1.666;2022-09-12T18:07:37;0.65;;;0.65;;
33987;SDS011;37428;53.580;-1.666;2022-09-12T18:10:40;0.80;;;0.60;;
33987;SDS011;37428;53.580;-1.666;2022-09-12T18:13:43;0.40;;;0.40;;
33987;SDS011;37428;53.580;-1.666;2022-09-12T18:16:46;1.38;;;0.40;;
33987;SDS011;37428;53.580;-1.666;2022-09-12T18:19:48;3.60;;;0.70;;
33987;SDS011;37428;53.580;-1.666;2022-09-12T18:22:53;0.98;;;0.73;;
33987;SDS011;37428;53.580;-1.666;2022-09-12T18:25:56;0.77;;;0.75;;
33987;SDS011;37428;53.580;-1.666;2022-09-12T18:28:58;1.42;;;1.00;;
33987;SDS011;37428;53.580;-1.666;2022-09-12T18:32:00;1.17;;;1.17;;
33987;SDS011;37428;53.580;-1.666;2022-09-12T18:35:03;2.05;;;1.55;;
33987;SDS011;37428;53.580;-1.666;2022-09-12T18:38:07;2.53;;;1.67;;
33987;SDS011;37428;53.580;-1.666;2022-09-12T18:41:09;4.18;;;2.30;;
33987;SDS011;37428;53.580;-1.666;2022-09-12T18:44:12;4.15;;;2.90;;
33987;SDS011;37428;53.580;-1.666;2022-09-12T18:47:15;1.40;;;1.30;;
33987;SDS011;37428;53.580;-1.666;2022-09-12T18:50:17;3.40;;;3.10;;
33987;SDS011;37428;53.580;-1.666;2022-09-12T18:53:23;1.88;;;1.63;;
33987;SDS011;37428;53.580;-1.666;2022-09-12T18:56:25;4.32;;;1.67;;
33987;SDS011;37428;53.580;-1.666;2022-09-12T18:59:31;1.98;;;1.70;;
33987;SDS011;37428;53.580;-1.666;2022-09-12T19:02:33;3.53;;;2.22;;
33987;SDS011;37428;53.580;-1.666;2022-09-12T19:05:35;2.65;;;2.28;;
33987;SDS011;37428;53.580;-1.666;2022-09-12T19:08:39;6.82;;;2.72;;
33987;SDS011;37428;53.580;-1.666;2022-09-12T19:11:42;7.05;;;2.90;;